Avalon, California
Current Conditions -  °F | °C
As of 1:51 PM on Monday 20 Oct 2014 (Local Time) from KAVX Reporting Station
Clear Clear  
Wind Chill: 66°   Ceiling: Unl
Heat Index: 66°   Visibility: 10mi
Dew Point: 57°   Wind: 8mph
Humidity: 73%   Direction: 260°W
Pressure: 29.94"   Gusts: NA
Location:  33.34°N, 118.33°W
Report Text: KAVX 202051Z AUTO 26007KT 10SM CLR 19/14 A2994 RMK AO2 SLP124 T01890139 58014
Loading
Personal Weather Stations






























Interactive Weather Map
Tropical Storm Tracking
New forecast layout! Learn more

10-Day Weather Forecast

Advertisements
Track Severe Weather on mobile